Aviation Digital Data Service (ADDS)

Output produced by TAFs form (0110 UTC 27 August 2016)
found at http://aviationweather.gov/adds/tafs/
 
KAMA 262322Z 2700/2724 16011KT P6SM SCT060 BKN150 
     FM271000 20010KT P6SM OVC100 
     FM271800 18015KT P6SM SCT050